Time;durP1;ratioP1;P1;durP2;ratioP2;P2;SDS_P1;SDS_P2;PMS_P1;PMS_P2;Temp;Humidity;BMP_temperature;BMP_pressure;BME280_temperature;BME280_humidity;BME280_pressure;Samples;Min_cycle;Max_cycle;Signal;HPM_P1;HPM_P2
2022/01/14 00:02:10;;;;;;;107.07;34.83;;;;;;;;;;5071302;28;20142;-60
2022/01/14 00:04:36;;;;;;;95.50;35.63;;;;;;;;;;5070720;28;20810;-60
2022/01/14 00:07:01;;;;;;;111.30;37.40;;;;;;;;;;5072690;28;20480;-60
2022/01/14 00:09:27;;;;;;;114.53;39.08;;;;;;;;;;5070891;28;20032;-59
2022/01/14 00:11:56;;;;;;;105.97;36.70;;;;;;;;;;5072455;28;20406;-59
2022/01/14 00:14:35;;;;;;;91.18;36.55;;;;;;;;;;5059458;28;20037;-59
2022/01/14 00:17:00;;;;;;;92.57;37.47;;;;;;;;;;5052513;28;20021;-59
2022/01/14 00:19:25;;;;;;;89.90;37.80;;;;;;;;;;5051273;28;20488;-59
2022/01/14 00:21:50;;;;;;;102.63;36.50;;;;;;;;;;5052393;28;20087;-59
2022/01/14 00:32:31;;;;;;;127.88;38.95;;;;;;;;;;5072167;28;20090;-59
2022/01/14 00:34:56;;;;;;;93.50;40.53;;;;;;;;;;5071070;28;20024;-59
2022/01/14 00:37:21;;;;;;;93.27;35.97;;;;;;;;;;5072310;28;20482;-59
2022/01/14 00:39:47;;;;;;;104.75;38.03;;;;;;;;;;5070354;28;20447;-60
2022/01/14 00:42:12;;;;;;;131.00;43.17;;;;;;;;;;5053934;28;20370;-59
2022/01/14 00:44:37;;;;;;;105.40;40.97;;;;;;;;;;5050691;28;20382;-59
2022/01/14 00:47:03;;;;;;;104.20;38.95;;;;;;;;;;5051889;28;20440;-59
2022/01/14 00:49:29;;;;;;;108.45;46.58;;;;;;;;;;5050823;28;20044;-59
2022/01/14 00:51:54;;;;;;;113.85;42.58;;;;;;;;;;5052130;28;20013;-59
2022/01/14 00:54:19;;;;;;;111.43;44.67;;;;;;;;;;5050323;28;20055;-59
2022/01/14 00:56:48;;;;;;;112.50;44.13;;;;;;;;;;5052775;28;20032;-60
2022/01/14 00:59:15;;;;;;;107.00;44.88;;;;;;;;;;5050842;28;20899;-59
2022/01/14 01:01:43;;;;;;;104.75;38.63;;;;;;;;;;5051173;28;20033;-59
2022/01/14 01:04:09;;;;;;;98.93;43.55;;;;;;;;;;5050508;28;20072;-59
2022/01/14 01:06:34;;;;;;;105.00;39.90;;;;;;;;;;5051692;28;20021;-59
2022/01/14 01:08:59;;;;;;;130.00;46.78;;;;;;;;;;5058024;28;20380;-59
2022/01/14 01:11:29;;;;;;;114.20;40.63;;;;;;;;;;5071579;28;20395;-59
2022/01/14 01:14:07;;;;;;;99.82;41.20;;;;;;;;;;5069785;28;20376;-59
2022/01/14 01:16:32;;;;;;;107.60;40.67;;;;;;;;;;5071130;28;20016;-59
2022/01/14 01:18:57;;;;;;;95.07;38.67;;;;;;;;;;5070372;28;20101;-60
2022/01/14 01:21:22;;;;;;;97.03;37.30;;;;;;;;;;5055953;28;20031;-61
2022/01/14 01:23:48;;;;;;;88.33;40.30;;;;;;;;;;5051934;28;20862;-60
2022/01/14 01:26:20;;;;;;;102.07;39.42;;;;;;;;;;5057418;28;20035;-61
2022/01/14 01:29:01;;;;;;;106.00;40.00;;;;;;;;;;5069018;28;20060;-61
2022/01/14 01:31:40;;;;;;;117.25;38.80;;;;;;;;;;5071196;28;20052;-61
2022/01/14 01:34:07;;;;;;;113.57;41.13;;;;;;;;;;5069891;28;20530;-61
2022/01/14 01:36:32;;;;;;;125.25;48.50;;;;;;;;;;5070987;28;20095;-61
2022/01/14 01:38:57;;;;;;;105.20;44.45;;;;;;;;;;5069531;28;20029;-61
2022/01/14 01:41:23;;;;;;;101.97;43.63;;;;;;;;;;5070993;28;20020;-61
2022/01/14 01:43:52;;;;;;;105.15;43.25;;;;;;;;;;5056144;28;20093;-61
2022/01/14 01:46:19;;;;;;;116.97;45.83;;;;;;;;;;5050803;28;20064;-61
2022/01/14 01:48:45;;;;;;;104.18;39.30;;;;;;;;;;5051975;28;20033;-61
2022/01/14 01:51:10;;;;;;;105.57;43.35;;;;;;;;;;5070973;28;20035;-61
2022/01/14 01:53:35;;;;;;;102.27;45.13;;;;;;;;;;5067800;28;20017;-59
2022/01/14 01:56:00;;;;;;;108.53;43.70;;;;;;;;;;5070107;28;21023;-61
2022/01/14 01:58:25;;;;;;;93.47;44.45;;;;;;;;;;5071185;28;20510;-61
2022/01/14 02:00:50;;;;;;;107.40;46.23;;;;;;;;;;5068708;28;20203;-61
2022/01/14 02:03:16;;;;;;;109.07;44.40;;;;;;;;;;5070747;28;20097;-61
2022/01/14 02:05:43;;;;;;;121.05;43.20;;;;;;;;;;5069174;28;20032;-61
2022/01/14 02:08:08;;;;;;;110.80;43.17;;;;;;;;;;5070434;28;20024;-61
2022/01/14 02:10:33;;;;;;;115.85;44.35;;;;;;;;;;5068342;28;20033;-61
2022/01/14 02:13:01;;;;;;;124.23;48.43;;;;;;;;;;5068657;28;20024;-61
2022/01/14 02:15:43;;;;;;;102.00;45.75;;;;;;;;;;5048928;28;20458;-60
2022/01/14 02:18:27;;;;;;;129.80;49.95;;;;;;;;;;5050596;28;20017;-61
2022/01/14 02:23:40;;;;;;;122.25;46.58;;;;;;;;;;5065491;28;20039;-60
2022/01/14 02:26:06;;;;;;;110.30;40.80;;;;;;;;;;5070863;28;20515;-61
2022/01/14 02:28:31;;;;;;;103.03;44.47;;;;;;;;;;5070400;28;20130;-61
2022/01/14 02:30:56;;;;;;;119.40;48.45;;;;;;;;;;5068240;28;20407;-61
2022/01/14 02:33:21;;;;;;;123.30;47.60;;;;;;;;;;5070686;28;20031;-61
2022/01/14 02:35:48;;;;;;;111.18;45.65;;;;;;;;;;5068791;28;20507;-61
2022/01/14 02:38:13;;;;;;;115.18;43.38;;;;;;;;;;5073464;28;20058;-61
2022/01/14 02:40:39;;;;;;;121.93;42.60;;;;;;;;;;5075335;28;20453;-61
2022/01/14 02:43:11;;;;;;;133.43;47.08;;;;;;;;;;5077016;28;20012;-61
2022/01/14 02:45:36;;;;;;;122.65;45.25;;;;;;;;;;5075072;28;20032;-61
2022/01/14 02:48:02;;;;;;;113.13;48.28;;;;;;;;;;5077251;28;20530;-61
2022/01/14 02:50:36;;;;;;;108.05;45.25;;;;;;;;;;5067470;28;20476;-61
2022/01/14 02:53:12;;;;;;;126.97;46.83;;;;;;;;;;5056794;28;20360;-61
2022/01/14 02:55:43;;;;;;;120.38;48.00;;;;;;;;;;5055230;28;20091;-61
2022/01/14 02:58:08;;;;;;;123.28;50.22;;;;;;;;;;5056822;28;20021;-61
2022/01/14 03:00:33;;;;;;;123.53;46.85;;;;;;;;;;5054876;28;20040;-61
2022/01/14 03:02:59;;;;;;;136.70;47.80;;;;;;;;;;5059596;28;20019;-61
2022/01/14 03:05:26;;;;;;;134.15;51.95;;;;;;;;;;5075422;28;20033;-61
2022/01/14 03:07:51;;;;;;;112.10;48.42;;;;;;;;;;5076442;28;20024;-61
2022/01/14 03:10:17;;;;;;;121.10;50.40;;;;;;;;;;5075491;28;20028;-61
2022/01/14 03:12:42;;;;;;;111.78;47.78;;;;;;;;;;5076595;28;20456;-61
2022/01/14 03:15:08;;;;;;;127.20;50.45;;;;;;;;;;5075141;28;20036;-61
2022/01/14 03:17:33;;;;;;;125.35;46.03;;;;;;;;;;5066820;28;20025;-61
2022/01/14 03:20:01;;;;;;;120.33;46.67;;;;;;;;;;5055453;28;20061;-61
2022/01/14 03:22:31;;;;;;;112.10;44.05;;;;;;;;;;5056226;28;21025;-61
2022/01/14 03:27:22;;;;;;;137.40;45.90;;;;;;;;;;5056403;28;20041;-60
2022/01/14 03:29:47;;;;;;;128.45;45.97;;;;;;;;;;5054947;28;21024;-60
2022/01/14 03:32:13;;;;;;;138.73;49.87;;;;;;;;;;5072256;28;20602;-60
2022/01/14 03:34:39;;;;;;;139.98;49.10;;;;;;;;;;5074475;28;20470;-60
2022/01/14 03:37:04;;;;;;;154.02;48.40;;;;;;;;;;5076276;28;20020;-59
2022/01/14 03:39:29;;;;;;;168.07;50.58;;;;;;;;;;5074990;28;20051;-60
2022/01/14 03:41:55;;;;;;;182.80;51.92;;;;;;;;;;5076165;28;20146;-61
2022/01/14 03:44:21;;;;;;;122.40;44.88;;;;;;;;;;5074830;28;20071;-60
2022/01/14 03:46:46;;;;;;;154.65;51.33;;;;;;;;;;5076300;28;20040;-60
2022/01/14 03:49:11;;;;;;;169.55;49.30;;;;;;;;;;5071548;28;20487;-60
2022/01/14 03:51:37;;;;;;;156.10;50.33;;;;;;;;;;5072519;28;20020;-61
2022/01/14 03:54:02;;;;;;;157.18;56.40;;;;;;;;;;5072015;28;20395;-60
2022/01/14 03:56:27;;;;;;;153.47;48.00;;;;;;;;;;5073188;28;20456;-61
2022/01/14 03:58:53;;;;;;;187.18;55.88;;;;;;;;;;5066638;28;20443;-61
2022/01/14 04:01:19;;;;;;;139.55;51.33;;;;;;;;;;5052816;28;20035;-60
2022/01/14 04:03:45;;;;;;;173.40;53.15;;;;;;;;;;5051641;28;20035;-60
2022/01/14 04:06:10;;;;;;;179.20;58.30;;;;;;;;;;5052768;28;20020;-59
2022/01/14 04:08:36;;;;;;;160.60;50.38;;;;;;;;;;5051410;28;20083;-60
2022/01/14 04:11:03;;;;;;;164.20;48.08;;;;;;;;;;5052577;28;20025;-60
2022/01/14 04:14:08;;;;;;;173.82;53.55;;;;;;;;;;5052551;28;20028;-60
2022/01/14 04:16:20;;;;;;;191.40;54.40;;;;;;;;;;5049924;28;20128;-60
2022/01/14 04:18:45;;;;;;;192.02;60.10;;;;;;;;;;5071179;28;20096;-60
2022/01/14 04:21:10;;;;;;;219.33;54.33;;;;;;;;;;5069927;28;20434;-60
2022/01/14 04:23:36;;;;;;;154.77;51.73;;;;;;;;;;5050914;28;20431;-59
2022/01/14 04:26:01;;;;;;;184.75;54.58;;;;;;;;;;5052588;28;20411;-60
2022/01/14 04:28:29;;;;;;;193.38;58.30;;;;;;;;;;5071478;28;20056;-61
2022/01/14 04:30:54;;;;;;;209.68;56.63;;;;;;;;;;5070754;28;20040;-60
2022/01/14 04:33:20;;;;;;;181.98;61.53;;;;;;;;;;5072590;28;20039;-60
2022/01/14 04:35:45;;;;;;;211.00;55.05;;;;;;;;;;5070420;28;20032;-60
2022/01/14 04:38:11;;;;;;;223.20;55.17;;;;;;;;;;5072428;28;20024;-60
2022/01/14 04:40:36;;;;;;;205.55;56.15;;;;;;;;;;5070548;28;20377;-60
2022/01/14 04:43:01;;;;;;;207.50;57.97;;;;;;;;;;5071343;28;20052;-61
2022/01/14 04:45:43;;;;;;;223.47;52.50;;;;;;;;;;5071047;28;20462;-60
2022/01/14 04:48:09;;;;;;;198.98;51.45;;;;;;;;;;5070754;28;20411;-60
2022/01/14 04:50:34;;;;;;;200.63;55.28;;;;;;;;;;5069700;28;20185;-60
2022/01/14 04:53:00;;;;;;;225.50;53.85;;;;;;;;;;5072131;28;20486;-60
2022/01/14 04:55:26;;;;;;;166.95;51.92;;;;;;;;;;5059603;28;20345;-60
2022/01/14 04:57:51;;;;;;;212.07;54.13;;;;;;;;;;5051446;28;20072;-60
2022/01/14 05:00:18;;;;;;;201.73;54.88;;;;;;;;;;5050341;28;20381;-60
2022/01/14 05:02:43;;;;;;;222.27;65.93;;;;;;;;;;5051819;28;20029;-60
2022/01/14 05:05:09;;;;;;;209.82;55.35;;;;;;;;;;5050194;28;20047;-60
2022/01/14 05:07:34;;;;;;;204.55;54.80;;;;;;;;;;5051947;28;20353;-60
2022/01/14 05:12:28;;;;;;;215.63;55.20;;;;;;;;;;5051433;28;20492;-58
2022/01/14 05:14:53;;;;;;;221.40;56.40;;;;;;;;;;5064414;28;20033;-56
2022/01/14 05:17:18;;;;;;;231.35;55.38;;;;;;;;;;5070342;28;20047;-57
2022/01/14 05:19:43;;;;;;;238.32;59.28;;;;;;;;;;5067713;28;20077;-57
2022/01/14 05:22:08;;;;;;;215.50;53.45;;;;;;;;;;5065910;28;20028;-57
2022/01/14 05:24:34;;;;;;;234.35;51.38;;;;;;;;;;5053879;28;20437;-57
2022/01/14 05:26:59;;;;;;;242.90;57.55;;;;;;;;;;5050551;28;20488;-57
2022/01/14 05:29:24;;;;;;;217.67;56.57;;;;;;;;;;5047054;28;20123;-57
2022/01/14 05:31:51;;;;;;;211.27;57.55;;;;;;;;;;5051245;28;20439;-57
2022/01/14 05:34:16;;;;;;;242.40;55.35;;;;;;;;;;5051036;28;20086;-57
2022/01/14 05:36:42;;;;;;;227.97;54.07;;;;;;;;;;5050755;28;20368;-57
2022/01/14 05:39:08;;;;;;;221.93;54.13;;;;;;;;;;5055885;28;20466;-57
2022/01/14 05:41:33;;;;;;;209.93;47.97;;;;;;;;;;5050847;28;20131;-57
2022/01/14 05:43:58;;;;;;;241.57;54.65;;;;;;;;;;5049717;28;20396;-57
2022/01/14 05:46:23;;;;;;;223.93;56.30;;;;;;;;;;5049529;28;20029;-57
2022/01/14 05:48:49;;;;;;;210.30;51.40;;;;;;;;;;5049486;28;20423;-57
2022/01/14 05:51:14;;;;;;;266.23;56.30;;;;;;;;;;5050687;28;20074;-57
2022/01/14 05:53:39;;;;;;;272.17;58.95;;;;;;;;;;5041721;28;20017;-57
2022/01/14 05:56:04;;;;;;;243.80;51.70;;;;;;;;;;5048410;28;20017;-57
2022/01/14 05:58:29;;;;;;;232.65;52.88;;;;;;;;;;5030222;28;20013;-57
2022/01/14 06:00:54;;;;;;;165.90;52.37;;;;;;;;;;5029049;28;20029;-57
2022/01/14 06:03:20;;;;;;;231.68;48.55;;;;;;;;;;5030875;28;20416;-57
2022/01/14 06:05:45;;;;;;;233.03;52.87;;;;;;;;;;5028789;28;20396;-57
2022/01/14 06:08:10;;;;;;;237.55;53.50;;;;;;;;;;5030850;28;20768;-57
2022/01/14 06:10:35;;;;;;;232.67;53.03;;;;;;;;;;5029266;28;20453;-57
2022/01/14 06:13:00;;;;;;;237.63;53.65;;;;;;;;;;5029977;28;20026;-57
2022/01/14 06:15:26;;;;;;;264.40;53.73;;;;;;;;;;5029321;28;20029;-57
2022/01/14 06:17:51;;;;;;;254.60;53.27;;;;;;;;;;5050438;28;20411;-57
2022/01/14 06:20:16;;;;;;;247.30;54.28;;;;;;;;;;5048631;28;20448;-57
2022/01/14 06:22:41;;;;;;;228.15;50.67;;;;;;;;;;5049979;28;20024;-57
2022/01/14 06:25:07;;;;;;;226.27;49.97;;;;;;;;;;5049009;28;20040;-57
2022/01/14 06:27:32;;;;;;;264.60;54.55;;;;;;;;;;5049755;28;20475;-57
2022/01/14 06:29:58;;;;;;;275.02;53.15;;;;;;;;;;5049065;28;20044;-57
2022/01/14 06:32:23;;;;;;;225.52;48.75;;;;;;;;;;5050313;28;20128;-57
2022/01/14 06:34:48;;;;;;;181.63;50.35;;;;;;;;;;5048273;28;20116;-57
2022/01/14 06:37:14;;;;;;;207.57;51.93;;;;;;;;;;5049739;28;20021;-57
2022/01/14 06:39:39;;;;;;;177.07;52.07;;;;;;;;;;5048123;28;20891;-57
2022/01/14 06:42:04;;;;;;;225.20;49.42;;;;;;;;;;5049394;28;20428;-57
2022/01/14 06:44:29;;;;;;;219.35;51.17;;;;;;;;;;5048189;28;20451;-57
2022/01/14 06:46:54;;;;;;;185.67;50.30;;;;;;;;;;5049502;28;20024;-57
2022/01/14 06:49:20;;;;;;;211.32;54.47;;;;;;;;;;5048098;28;20447;-57
2022/01/14 06:51:45;;;;;;;243.50;51.15;;;;;;;;;;5049691;28;20013;-57
2022/01/14 06:54:10;;;;;;;216.80;52.00;;;;;;;;;;5048602;28;20111;-57
2022/01/14 06:56:38;;;;;;;175.90;48.77;;;;;;;;;;5049090;28;20435;-57
2022/01/14 06:59:03;;;;;;;207.80;44.07;;;;;;;;;;5048192;28;20440;-57
2022/01/14 07:01:28;;;;;;;202.05;47.70;;;;;;;;;;5049778;28;20372;-57
2022/01/14 07:03:53;;;;;;;192.27;49.60;;;;;;;;;;5047613;28;20198;-57
2022/01/14 07:06:18;;;;;;;241.13;58.65;;;;;;;;;;5049577;28;20017;-57
2022/01/14 07:08:43;;;;;;;181.55;46.90;;;;;;;;;;5048016;28;20351;-57
2022/01/14 07:11:10;;;;;;;253.98;44.85;;;;;;;;;;5049224;28;20033;-57
2022/01/14 07:13:36;;;;;;;218.70;47.83;;;;;;;;;;5049495;28;20013;-57
2022/01/14 07:16:01;;;;;;;196.30;47.00;;;;;;;;;;5048152;28;20507;-57
2022/01/14 07:18:26;;;;;;;196.25;50.08;;;;;;;;;;5049386;28;20021;-57
2022/01/14 07:20:51;;;;;;;189.00;45.70;;;;;;;;;;5047717;28;20033;-57
2022/01/14 07:23:16;;;;;;;191.90;48.87;;;;;;;;;;5050521;28;20013;-57
2022/01/14 07:25:42;;;;;;;167.00;46.42;;;;;;;;;;5051128;28;20558;-58
2022/01/14 07:28:07;;;;;;;162.32;45.13;;;;;;;;;;5053254;28;20441;-57
2022/01/14 07:30:32;;;;;;;201.33;51.93;;;;;;;;;;5051771;28;20025;-57
2022/01/14 07:32:58;;;;;;;137.88;43.75;;;;;;;;;;5052732;28;20485;-57
2022/01/14 07:35:23;;;;;;;179.63;44.92;;;;;;;;;;5048944;28;20104;-57
2022/01/14 07:37:48;;;;;;;196.90;47.80;;;;;;;;;;5052860;28;20033;-57
2022/01/14 07:40:13;;;;;;;159.57;48.97;;;;;;;;;;5051450;28;20124;-57
2022/01/14 07:42:39;;;;;;;176.10;44.15;;;;;;;;;;5052333;28;21036;-57
2022/01/14 07:45:04;;;;;;;142.13;46.97;;;;;;;;;;5051545;28;20033;-57
2022/01/14 07:47:30;;;;;;;174.15;49.20;;;;;;;;;;5052723;28;20833;-57
2022/01/14 07:49:55;;;;;;;178.18;44.75;;;;;;;;;;5051000;28;20467;-57
2022/01/14 07:52:20;;;;;;;160.15;45.63;;;;;;;;;;5052857;28;20020;-57
2022/01/14 07:54:45;;;;;;;167.77;44.60;;;;;;;;;;5050960;28;20369;-57
2022/01/14 07:57:11;;;;;;;166.13;47.07;;;;;;;;;;5052742;28;20512;-57
2022/01/14 07:59:37;;;;;;;151.85;44.70;;;;;;;;;;5051511;28;20443;-57
2022/01/14 08:02:03;;;;;;;163.00;48.53;;;;;;;;;;5053028;28;20032;-57
2022/01/14 08:04:32;;;;;;;225.88;47.03;;;;;;;;;;5051338;28;20032;-57
2022/01/14 08:07:08;;;;;;;;;;;;;;;;;;5053565;28;20028;-57
2022/01/14 08:09:33;;;;;;;201.30;51.38;;;;;;;;;;5051481;28;19909;-57
2022/01/14 08:11:59;;;;;;;179.95;46.58;;;;;;;;;;5052724;28;20170;-57
2022/01/14 08:14:24;;;;;;;158.15;45.38;;;;;;;;;;5051044;28;20179;-57
2022/01/14 08:16:49;;;;;;;162.77;51.15;;;;;;;;;;5051790;28;20087;-57
2022/01/14 08:19:14;;;;;;;173.33;48.07;;;;;;;;;;5050361;28;20037;-57
2022/01/14 08:21:39;;;;;;;132.97;46.13;;;;;;;;;;5052246;28;20435;-57
2022/01/14 08:24:05;;;;;;;142.70;44.42;;;;;;;;;;5050816;28;20494;-57
2022/01/14 08:26:30;;;;;;;145.93;46.17;;;;;;;;;;5051894;28;20040;-57
2022/01/14 08:28:55;;;;;;;145.93;45.47;;;;;;;;;;5050310;28;21332;-57
2022/01/14 08:31:22;;;;;;;153.35;50.05;;;;;;;;;;5052081;28;20012;-57
2022/01/14 08:33:47;;;;;;;173.07;50.65;;;;;;;;;;5050182;28;20020;-57
2022/01/14 08:36:13;;;;;;;124.93;50.50;;;;;;;;;;5051269;28;20017;-57
2022/01/14 08:38:38;;;;;;;186.02;50.25;;;;;;;;;;5050163;28;20013;-56
2022/01/14 08:41:04;;;;;;;186.10;53.05;;;;;;;;;;5051954;28;20047;-57
2022/01/14 08:43:30;;;;;;;180.48;53.53;;;;;;;;;;5052237;28;20019;-57
2022/01/14 08:45:58;;;;;;;163.30;50.63;;;;;;;;;;5050461;28;20116;-57
2022/01/14 08:48:23;;;;;;;148.30;47.65;;;;;;;;;;5052251;28;20423;-57
2022/01/14 08:50:48;;;;;;;148.07;51.60;;;;;;;;;;5050356;28;20102;-57
2022/01/14 08:53:14;;;;;;;148.73;53.22;;;;;;;;;;5052450;28;20381;-56
2022/01/14 08:55:39;;;;;;;123.70;42.83;;;;;;;;;;5049926;28;20455;-57
2022/01/14 08:58:05;;;;;;;144.20;49.05;;;;;;;;;;5052156;28;20017;-57
2022/01/14 09:00:31;;;;;;;128.05;44.60;;;;;;;;;;5047791;28;20040;-57
2022/01/14 09:02:56;;;;;;;140.98;51.85;;;;;;;;;;5050280;28;20029;-57
2022/01/14 09:05:22;;;;;;;144.23;53.15;;;;;;;;;;5059699;28;20029;-57
2022/01/14 09:07:48;;;;;;;128.90;50.92;;;;;;;;;;5051552;28;20496;-57
2022/01/14 09:10:13;;;;;;;139.05;50.17;;;;;;;;;;5049826;28;20697;-57
2022/01/14 09:12:40;;;;;;;150.90;50.97;;;;;;;;;;5051344;28;20017;-61
2022/01/14 09:15:06;;;;;;;146.25;51.58;;;;;;;;;;5050240;28;20044;-56
2022/01/14 09:17:32;;;;;;;130.38;46.65;;;;;;;;;;5051099;28;20021;-58
2022/01/14 09:19:57;;;;;;;129.15;48.00;;;;;;;;;;5050215;28;20025;-57
2022/01/14 09:22:24;;;;;;;114.65;46.40;;;;;;;;;;5051741;28;20460;-57
2022/01/14 09:24:50;;;;;;;133.35;50.88;;;;;;;;;;5049501;28;20033;-57
2022/01/14 09:27:15;;;;;;;132.45;56.15;;;;;;;;;;5031549;28;20385;-57
2022/01/14 09:29:41;;;;;;;145.43;52.42;;;;;;;;;;5029692;28;20083;-57
2022/01/14 09:32:07;;;;;;;124.13;49.40;;;;;;;;;;5029865;28;20067;-57
2022/01/14 09:34:33;;;;;;;131.85;52.88;;;;;;;;;;5029557;28;20040;-57
2022/01/14 09:36:58;;;;;;;128.23;47.83;;;;;;;;;;5031309;28;20013;-57
2022/01/14 09:39:24;;;;;;;126.00;48.00;;;;;;;;;;5029693;28;20087;-57
2022/01/14 09:41:49;;;;;;;123.15;48.38;;;;;;;;;;5030890;28;20420;-57
2022/01/14 09:44:14;;;;;;;123.68;50.03;;;;;;;;;;5030096;28;20042;-57
2022/01/14 09:46:40;;;;;;;110.38;44.15;;;;;;;;;;5029832;28;20053;-57
2022/01/14 09:49:05;;;;;;;115.40;48.55;;;;;;;;;;5029824;28;20121;-57
2022/01/14 09:51:30;;;;;;;120.50;50.00;;;;;;;;;;5031073;28;20072;-57
2022/01/14 09:53:55;;;;;;;106.57;48.53;;;;;;;;;;5029228;28;20021;-57
2022/01/14 09:56:22;;;;;;;121.90;49.30;;;;;;;;;;5031041;28;20416;-57
2022/01/14 09:58:49;;;;;;;115.68;46.00;;;;;;;;;;5029563;28;20412;-57
2022/01/14 10:01:15;;;;;;;114.97;45.95;;;;;;;;;;5030835;28;20381;-57
2022/01/14 10:03:48;;;;;;;107.50;45.25;;;;;;;;;;5029347;28;20014;-57
2022/01/14 10:06:32;;;;;;;117.43;49.28;;;;;;;;;;5034844;28;20020;-57
2022/01/14 10:09:04;;;;;;;106.05;46.15;;;;;;;;;;5046059;28;20086;-57
2022/01/14 10:11:29;;;;;;;109.07;50.08;;;;;;;;;;5049558;28;20021;-57
2022/01/14 10:14:02;;;;;;;111.55;48.17;;;;;;;;;;5047684;28;20009;-57
2022/01/14 10:16:27;;;;;;;100.82;49.03;;;;;;;;;;5049005;28;20013;-57
2022/01/14 10:18:53;;;;;;;96.13;45.00;;;;;;;;;;5048244;28;20005;-57
2022/01/14 10:21:18;;;;;;;98.70;45.85;;;;;;;;;;5050747;28;20117;-57
2022/01/14 10:23:44;;;;;;;104.13;46.90;;;;;;;;;;5048537;28;20047;-57
2022/01/14 10:26:10;;;;;;;116.57;49.83;;;;;;;;;;5050696;28;20305;-57
2022/01/14 10:28:35;;;;;;;99.38;46.38;;;;;;;;;;5049901;28;20347;-57
2022/01/14 10:31:01;;;;;;;91.57;45.63;;;;;;;;;;5048761;28;20108;-56
2022/01/14 10:33:28;;;;;;;90.25;42.50;;;;;;;;;;5051102;28;20031;-57
2022/01/14 10:35:53;;;;;;;97.28;42.65;;;;;;;;;;5047529;28;20037;-57
2022/01/14 10:38:19;;;;;;;100.43;48.22;;;;;;;;;;5049854;28;20489;-57
2022/01/14 10:40:46;;;;;;;107.53;46.55;;;;;;;;;;5048723;28;20056;-57
2022/01/14 10:43:15;;;;;;;117.72;47.90;;;;;;;;;;5050326;28;20205;-57
2022/01/14 10:45:41;;;;;;;;;;;;;;;;;;5048942;28;20041;-57
2022/01/14 10:48:07;;;;;;;77.18;41.55;;;;;;;;;;5050589;28;19916;-57
2022/01/14 10:50:33;;;;;;;99.88;44.15;;;;;;;;;;5048802;28;20029;-57
2022/01/14 10:52:58;;;;;;;97.13;45.38;;;;;;;;;;5050081;28;20017;-57
2022/01/14 10:55:50;;;;;;;95.28;44.05;;;;;;;;;;5048826;28;20037;-57
2022/01/14 10:58:16;;;;;;;78.70;44.70;;;;;;;;;;5035512;28;20110;-57
2022/01/14 11:00:48;;;;;;;91.75;43.10;;;;;;;;;;5031519;28;20045;-57
2022/01/14 11:03:14;;;;;;;94.63;45.80;;;;;;;;;;5033691;28;20021;-57
2022/01/14 11:05:40;;;;;;;92.75;47.15;;;;;;;;;;5031934;28;20038;-57
2022/01/14 11:08:05;;;;;;;83.95;43.40;;;;;;;;;;5033816;28;20028;-57
2022/01/14 11:10:33;;;;;;;85.10;46.35;;;;;;;;;;5055711;28;20041;-57
2022/01/14 11:13:00;;;;;;;77.75;38.55;;;;;;;;;;5072638;28;20031;-57
2022/01/14 11:15:26;;;;;;;77.15;38.03;;;;;;;;;;5060261;28;20071;-57
2022/01/14 11:17:53;;;;;;;79.60;41.47;;;;;;;;;;5054751;28;20041;-57
2022/01/14 11:20:24;;;;;;;75.00;40.80;;;;;;;;;;5056641;28;20483;-57
2022/01/14 11:25:36;;;;;;;81.07;42.10;;;;;;;;;;5051911;28;20171;-57
2022/01/14 11:28:01;;;;;;;79.70;41.83;;;;;;;;;;5060703;28;20133;-57
2022/01/14 11:30:31;;;;;;;85.30;47.90;;;;;;;;;;5050586;28;21839;-57
2022/01/14 11:32:57;;;;;;;70.57;38.50;;;;;;;;;;5052684;28;20061;-57
2022/01/14 11:35:24;;;;;;;69.50;41.17;;;;;;;;;;5050886;28;20033;-57
2022/01/14 11:37:50;;;;;;;75.25;40.75;;;;;;;;;;5052767;28;20025;-57
2022/01/14 11:40:15;;;;;;;82.93;39.08;;;;;;;;;;5051937;28;20044;-57
2022/01/14 11:42:41;;;;;;;68.63;39.33;;;;;;;;;;5053416;28;20032;-57
2022/01/14 11:45:06;;;;;;;74.40;42.50;;;;;;;;;;5051521;28;20229;-57
2022/01/14 11:47:43;;;;;;;75.22;42.08;;;;;;;;;;5053134;28;20025;-57
2022/01/14 11:50:23;;;;;;;76.53;40.47;;;;;;;;;;5051780;28;20037;-57
2022/01/14 11:52:50;;;;;;;81.68;41.13;;;;;;;;;;5052633;28;20159;-57
2022/01/14 11:55:15;;;;;;;79.30;42.95;;;;;;;;;;5051870;28;20033;-57
2022/01/14 11:57:40;;;;;;;64.05;41.35;;;;;;;;;;5052997;28;20025;-57
2022/01/14 12:00:25;;;;;;;72.65;39.85;;;;;;;;;;5051390;28;20029;-57
2022/01/14 12:02:51;;;;;;;88.15;44.38;;;;;;;;;;5052477;28;20029;-57
2022/01/14 12:05:19;;;;;;;65.50;38.42;;;;;;;;;;5051510;28;20171;-57
2022/01/14 12:08:07;;;;;;;74.05;40.13;;;;;;;;;;5052530;28;20033;-57
2022/01/14 12:10:36;;;;;;;70.35;40.53;;;;;;;;;;5050376;28;20163;-57
2022/01/14 12:13:21;;;;;;;72.13;42.88;;;;;;;;;;5052965;28;20049;-57
2022/01/14 12:15:51;;;;;;;81.93;44.65;;;;;;;;;;5050973;28;20554;-57
2022/01/14 12:18:16;;;;;;;66.00;38.38;;;;;;;;;;5053111;28;20025;-57
2022/01/14 12:20:48;;;;;;;74.30;43.47;;;;;;;;;;5051258;28;20043;-57
2022/01/14 12:23:17;;;;;;;68.03;37.60;;;;;;;;;;5052404;28;20131;-57
2022/01/14 12:25:43;;;;;;;69.05;40.17;;;;;;;;;;5050821;28;20112;-57
2022/01/14 12:28:19;;;;;;;74.53;40.65;;;;;;;;;;5052781;28;20047;-57
2022/01/14 12:30:59;;;;;;;73.88;37.83;;;;;;;;;;5050731;28;20043;-57
2022/01/14 12:33:48;;;;;;;70.70;45.33;;;;;;;;;;5049148;28;20022;-57
2022/01/14 12:36:18;;;;;;;66.03;44.33;;;;;;;;;;5045272;28;20040;-57
2022/01/14 12:38:43;;;;;;;69.47;42.00;;;;;;;;;;5050711;28;20028;-57
2022/01/14 12:41:15;;;;;;;74.75;43.80;;;;;;;;;;5052427;28;20025;-57
2022/01/14 12:43:50;;;;;;;68.70;36.55;;;;;;;;;;5050207;28;20021;-57
2022/01/14 12:46:35;;;;;;;83.57;45.15;;;;;;;;;;5052588;28;20009;-57
2022/01/14 12:49:01;;;;;;;74.82;41.75;;;;;;;;;;5051017;28;20064;-57
2022/01/14 12:51:27;;;;;;;64.85;40.70;;;;;;;;;;5051618;28;20059;-57
2022/01/14 12:53:54;;;;;;;65.13;38.78;;;;;;;;;;5049669;28;20488;-57
2022/01/14 12:56:20;;;;;;;71.97;39.25;;;;;;;;;;5056406;28;20017;-57
2022/01/14 12:58:52;;;;;;;74.70;38.40;;;;;;;;;;5068263;28;20378;-57
2022/01/14 13:01:18;;;;;;;72.15;45.95;;;;;;;;;;5052707;28;20082;-58
2022/01/14 13:03:43;;;;;;;75.27;41.73;;;;;;;;;;5049029;28;20422;-57
2022/01/14 13:06:08;;;;;;;75.75;43.08;;;;;;;;;;5051129;28;20443;-58
2022/01/14 13:08:33;;;;;;;62.08;39.13;;;;;;;;;;5050064;28;20499;-57
2022/01/14 13:11:05;;;;;;;68.78;39.72;;;;;;;;;;5068487;28;20025;-57
2022/01/14 13:13:31;;;;;;;81.40;47.72;;;;;;;;;;5053660;28;20669;-57
2022/01/14 13:16:05;;;;;;;74.10;39.42;;;;;;;;;;5065360;28;20032;-57
2022/01/14 13:18:37;;;;;;;79.35;42.88;;;;;;;;;;5032066;28;20029;-57
2022/01/14 13:21:02;;;;;;;77.05;44.70;;;;;;;;;;5029688;28;20041;-57
2022/01/14 13:23:27;;;;;;;70.23;38.07;;;;;;;;;;5042195;28;20513;-58
2022/01/14 13:25:52;;;;;;;77.30;38.05;;;;;;;;;;5049648;28;20459;-58
2022/01/14 13:28:19;;;;;;;79.15;44.05;;;;;;;;;;5044760;28;20044;-58
2022/01/14 13:30:44;;;;;;;80.53;39.85;;;;;;;;;;5048464;28;20033;-57
2022/01/14 13:33:12;;;;;;;69.30;40.38;;;;;;;;;;5051415;28;20414;-57
2022/01/14 13:35:39;;;;;;;74.05;40.35;;;;;;;;;;5048121;28;20108;-58
2022/01/14 13:38:04;;;;;;;82.47;43.28;;;;;;;;;;5054353;28;20025;-57
2022/01/14 13:40:30;;;;;;;72.10;42.15;;;;;;;;;;5051323;28;20037;-57
2022/01/14 13:43:07;;;;;;;103.28;47.25;;;;;;;;;;5053231;28;20405;-57
2022/01/14 13:45:33;;;;;;;80.85;43.45;;;;;;;;;;5059412;28;20128;-58
2022/01/14 13:48:09;;;;;;;75.20;44.28;;;;;;;;;;5057439;28;20033;-57
2022/01/14 13:50:44;;;;;;;83.60;41.45;;;;;;;;;;5065605;28;20132;-58
2022/01/14 13:53:11;;;;;;;87.10;46.38;;;;;;;;;;5055413;28;20021;-57
2022/01/14 13:55:44;;;;;;;85.93;44.35;;;;;;;;;;5048971;28;20527;-58
2022/01/14 13:58:13;;;;;;;83.85;47.78;;;;;;;;;;5053716;28;20031;-58
2022/01/14 14:00:39;;;;;;;78.78;41.97;;;;;;;;;;5052102;28;20041;-57
2022/01/14 14:03:12;;;;;;;75.80;45.22;;;;;;;;;;5062043;28;20027;-57
2022/01/14 14:05:39;;;;;;;78.97;42.92;;;;;;;;;;5048136;28;20036;-58
2022/01/14 14:08:10;;;;;;;79.85;45.20;;;;;;;;;;5058431;28;20024;-57
2022/01/14 14:11:46;;;;;;;82.18;43.58;;;;;;;;;;5048377;28;20064;-57
2022/01/14 14:15:38;;;;;;;67.32;42.38;;;;;;;;;;5045576;28;20038;-58
2022/01/14 14:16:26;;;;;;;81.32;41.47;;;;;;;;;;5054389;28;20102;-57
2022/01/14 14:18:54;;;;;;;74.78;43.80;;;;;;;;;;5057232;28;20128;-57
2022/01/14 14:21:19;;;;;;;76.20;40.13;;;;;;;;;;5064428;28;20074;-57
2022/01/14 14:23:52;;;;;;;75.07;43.20;;;;;;;;;;5060307;28;20414;-57
2022/01/14 14:26:31;;;;;;;86.55;44.75;;;;;;;;;;5058377;28;20021;-57
2022/01/14 14:29:19;;;;;;;66.95;42.60;;;;;;;;;;5053304;28;20107;-64